Time;durP1;ratioP1;P1;durP2;ratioP2;P2;SDS_P1;SDS_P2;PMS_P1;PMS_P2;Temp;Humidity;BMP_temperature;BMP_pressure;BME280_temperature;BME280_humidity;BME280_pressure;Samples;Min_cycle;Max_cycle;Signal;HPM_P1;HPM_P2
2024/01/11 00:02:18;;;;;;;45.40;20.23;;;;;;;-7.05;100.00;98619.19;5173299;27;20541;-80
2024/01/11 00:04:44;;;;;;;44.33;18.02;;;;;;;-7.06;100.00;98613.94;5158038;27;20135;-78
2024/01/11 00:07:10;;;;;;;43.75;16.25;;;;;;;-7.10;100.00;98612.97;5141339;27;20037;-80
2024/01/11 00:09:40;;;;;;;45.10;20.02;;;;;;;-7.07;100.00;98620.00;5172842;27;20053;-80
2024/01/11 00:12:05;;;;;;;55.80;21.58;;;;;;;-7.11;100.00;98618.16;5099362;27;20027;-79
2024/01/11 00:14:31;;;;;;;66.22;23.60;;;;;;;-7.08;100.00;98626.91;5128898;27;20022;-80
2024/01/11 00:16:57;;;;;;;56.05;21.85;;;;;;;-7.16;100.00;98618.91;5155067;27;20105;-80
2024/01/11 00:19:22;;;;;;;43.58;17.40;;;;;;;-7.26;100.00;98611.72;5161491;27;20060;-80
2024/01/11 00:21:48;;;;;;;34.22;15.55;;;;;;;-7.21;100.00;98615.34;5157340;27;20390;-79
2024/01/11 00:24:14;;;;;;;30.15;13.82;;;;;;;-7.28;100.00;98610.81;5157122;27;20030;-79
2024/01/11 00:26:39;;;;;;;38.75;15.15;;;;;;;-7.33;100.00;98608.94;5176007;27;20033;-79
2024/01/11 00:29:05;;;;;;;43.10;17.60;;;;;;;-7.50;100.00;98598.13;5156810;27;20025;-80
2024/01/11 00:31:30;;;;;;;59.05;20.52;;;;;;;-7.56;100.00;98597.97;5157145;27;20101;-80
2024/01/11 00:33:56;;;;;;;50.92;19.60;;;;;;;-7.54;100.00;98598.91;5157048;27;20042;-79
2024/01/11 00:36:22;;;;;;;38.95;15.65;;;;;;;-7.51;100.00;98595.50;5175497;27;20405;-80
2024/01/11 00:38:47;;;;;;;42.97;18.23;;;;;;;-7.54;100.00;98587.63;5147393;27;20079;-79
2024/01/11 00:41:13;;;;;;;52.83;18.33;;;;;;;-7.53;100.00;98579.88;5167787;27;20030;-81
2024/01/11 00:43:38;;;;;;;36.17;17.33;;;;;;;-7.46;100.00;98594.78;5175322;27;20017;-79
2024/01/11 00:46:04;;;;;;;55.90;22.40;;;;;;;-7.48;100.00;98586.06;5156471;27;20086;-79
2024/01/11 00:48:29;;;;;;;37.97;16.52;;;;;;;-7.48;100.00;98586.06;5156952;27;20018;-80
2024/01/11 00:50:55;;;;;;;45.55;19.35;;;;;;;-7.46;100.00;98592.19;5139229;27;20026;-79
2024/01/11 00:53:21;;;;;;;47.10;18.58;;;;;;;-7.46;100.00;98593.88;5139405;27;20405;-80
2024/01/11 00:55:46;;;;;;;51.10;22.88;;;;;;;-7.52;100.00;98579.03;5175394;27;20102;-80
2024/01/11 00:58:13;;;;;;;39.55;17.15;;;;;;;-7.50;100.00;98587.72;5139963;27;20026;-79
2024/01/11 01:00:38;;;;;;;36.63;18.27;;;;;;;-7.49;100.00;98591.22;5155859;27;20046;-80
2024/01/11 01:03:04;;;;;;;40.80;17.85;;;;;;;-7.60;100.00;98572.78;5142559;27;20461;-79
2024/01/11 01:05:30;;;;;;;37.55;17.10;;;;;;;-7.54;100.00;98583.31;5154155;27;20053;-79
2024/01/11 01:07:55;;;;;;;50.97;19.58;;;;;;;-7.57;100.00;98577.16;5139184;27;20022;-78
2024/01/11 01:10:21;;;;;;;57.08;19.10;;;;;;;-7.47;100.00;98574.81;5153387;27;20548;-79
2024/01/11 01:12:46;;;;;;;55.45;21.40;;;;;;;-7.52;100.00;98562.56;5153458;27;20022;-79
2024/01/11 01:15:14;;;;;;;56.67;20.33;;;;;;;-7.55;100.00;98571.16;5135670;27;20015;-80
2024/01/11 01:17:39;;;;;;;49.97;20.00;;;;;;;-7.54;100.00;98567.75;5145342;27;20053;-79
2024/01/11 01:20:06;;;;;;;42.75;16.73;;;;;;;-7.51;100.00;98552.25;5138638;27;20087;-79
2024/01/11 01:22:31;;;;;;;41.10;19.63;;;;;;;-7.50;100.00;98545.28;5156218;27;20022;-80
2024/01/11 01:24:57;;;;;;;46.95;19.30;;;;;;;-7.51;100.00;98552.25;5152630;27;20033;-73
2024/01/11 01:27:22;;;;;;;30.95;14.85;;;;;;;-7.50;100.00;98553.09;5148209;27;20057;-73
2024/01/11 01:29:48;;;;;;;34.13;14.80;;;;;;;-7.57;100.00;98546.00;5154592;27;20022;-73
2024/01/11 01:32:14;;;;;;;34.97;16.80;;;;;;;-7.61;100.00;98541.56;5173028;27;20036;-73
2024/01/11 01:34:40;;;;;;;35.42;15.30;;;;;;;-7.68;100.00;98543.13;5154843;27;20093;-74
2024/01/11 01:37:07;;;;;;;34.20;14.73;;;;;;;-7.69;100.00;98556.97;5154405;27;20051;-74
2024/01/11 01:39:32;;;;;;;31.38;14.00;;;;;;;-7.83;100.00;98547.94;5137445;27;20034;-73
2024/01/11 01:41:58;;;;;;;31.00;14.40;;;;;;;-7.75;100.00;98556.81;5154065;27;20032;-74
2024/01/11 01:44:23;;;;;;;34.63;13.77;;;;;;;-7.74;100.00;98548.16;5154443;27;20121;-73
2024/01/11 01:46:51;;;;;;;26.50;13.60;;;;;;;-7.79;100.00;98536.81;5154563;27;20026;-74
2024/01/11 01:49:22;;;;;;;33.33;13.20;;;;;;;-7.78;100.00;98528.16;5154390;27;20106;-74
2024/01/11 01:51:47;;;;;;;35.67;14.50;;;;;;;-7.78;100.00;98526.44;5154286;27;20037;-73
2024/01/11 01:54:13;;;;;;;27.27;12.77;;;;;;;-7.90;100.00;98514.88;5154412;27;20022;-74
2024/01/11 01:56:39;;;;;;;31.45;13.30;;;;;;;-7.84;100.00;98522.81;5154470;27;20034;-74
2024/01/11 01:59:05;;;;;;;27.65;11.52;;;;;;;-7.92;100.00;98512.25;5154082;27;20060;-74
2024/01/11 02:01:30;;;;;;;25.10;12.63;;;;;;;-7.85;100.00;98510.69;5154387;27;20031;-75
2024/01/11 02:03:56;;;;;;;28.73;13.68;;;;;;;-7.92;100.00;98500.97;5154385;27;20030;-74
2024/01/11 02:06:23;;;;;;;34.03;12.98;;;;;;;-7.93;100.00;98500.09;5154249;27;20408;-75
2024/01/11 02:08:49;;;;;;;34.15;15.38;;;;;;;-7.93;100.00;98499.22;5154577;27;20014;-75
2024/01/11 02:11:15;;;;;;;29.08;14.93;;;;;;;-8.02;100.00;98489.50;5137243;27;20037;-75
2024/01/11 02:13:41;;;;;;;39.55;15.55;;;;;;;-7.96;100.00;98489.66;5177107;27;20022;-74
2024/01/11 02:16:07;;;;;;;45.05;16.88;;;;;;;-7.88;100.00;98497.63;5141007;27;20109;-74
2024/01/11 02:18:33;;;;;;;42.95;17.08;;;;;;;-7.89;100.00;98499.34;5158650;27;20098;-75
2024/01/11 02:20:58;;;;;;;39.08;15.80;;;;;;;-7.90;100.00;98491.50;5158441;27;20565;-74
2024/01/11 02:23:24;;;;;;;36.33;15.57;;;;;;;-7.88;100.00;98501.13;5176821;27;20058;-74
2024/01/11 02:25:50;;;;;;;41.65;16.40;;;;;;;-8.02;100.00;98483.41;5152149;27;20018;-75
2024/01/11 02:28:16;;;;;;;38.55;17.10;;;;;;;-8.01;100.00;98495.56;5137318;27;20190;-75
2024/01/11 02:30:42;;;;;;;45.60;16.73;;;;;;;-7.96;100.00;98499.13;5162535;27;20102;-74
2024/01/11 02:33:08;;;;;;;39.20;17.27;;;;;;;-7.95;100.00;98501.78;5139780;27;20018;-74
2024/01/11 02:35:35;;;;;;;46.63;17.13;;;;;;;-7.96;100.00;98493.94;5120096;27;20485;-74
2024/01/11 02:38:00;;;;;;;49.55;19.90;;;;;;;-7.96;100.00;98497.44;5120280;27;20018;-75
2024/01/11 02:40:26;;;;;;;54.28;19.70;;;;;;;-7.96;100.00;98499.13;5119982;27;20134;-74
2024/01/11 02:42:52;;;;;;;39.05;17.88;;;;;;;-7.94;100.00;98503.56;5120070;27;20517;-75
2024/01/11 02:45:18;;;;;;;45.95;19.10;;;;;;;-7.92;100.00;98498.38;5139376;27;20014;-75
2024/01/11 02:47:44;;;;;;;34.35;14.05;;;;;;;-8.02;100.00;98489.50;5158541;27;20500;-75
2024/01/11 02:50:11;;;;;;;25.83;11.68;;;;;;;-8.14;100.00;98480.50;5176501;27;20049;-74
2024/01/11 02:52:37;;;;;;;18.10;9.02;;;;;;;-8.31;100.00;98481.00;5158145;27;20124;-75
2024/01/11 02:55:03;;;;;;;23.33;9.98;;;;;;;-8.29;100.00;98494.88;5140296;27;20041;-74
2024/01/11 02:57:29;;;;;;;28.98;10.68;;;;;;;-8.34;100.00;98485.22;5157594;27;20028;-74
2024/01/11 02:59:54;;;;;;;26.88;12.70;;;;;;;-8.34;100.00;98485.22;5136708;27;20077;-76
2024/01/11 03:02:20;;;;;;;28.20;13.13;;;;;;;-8.33;100.00;98494.75;5154020;27;20565;-74
2024/01/11 03:04:53;;;;;;;31.15;14.40;;;;;;;-8.38;100.00;98489.44;5153093;27;20397;-77
2024/01/11 03:07:22;;;;;;;31.17;14.45;;;;;;;-8.40;100.00;98479.88;5152353;27;20405;-76
2024/01/11 03:09:48;;;;;;;39.83;15.85;;;;;;;-8.20;100.00;98498.50;5155089;27;20392;-76
2024/01/11 03:12:13;;;;;;;32.42;15.15;;;;;;;-8.26;100.00;98492.34;5136674;27;20113;-75
2024/01/11 03:14:39;;;;;;;31.08;15.23;;;;;;;-8.19;100.00;98500.28;5153941;27;20169;-74
2024/01/11 03:17:10;;;;;;;40.53;16.38;;;;;;;-8.12;100.00;98491.81;5155364;27;20030;-75
2024/01/11 03:19:40;;;;;;;39.47;17.85;;;;;;;-8.11;100.00;98491.84;5136601;27;20018;-76
2024/01/11 03:22:06;;;;;;;42.08;18.67;;;;;;;-8.04;100.00;98496.38;5154751;27;20034;-76
2024/01/11 03:24:32;;;;;;;43.47;20.23;;;;;;;-8.03;100.00;98482.56;5151199;27;20057;-76
2024/01/11 03:26:58;;;;;;;64.65;25.15;;;;;;;-7.93;100.00;98486.25;5120521;27;20030;-75
2024/01/11 03:32:16;;;;;;;58.53;24.23;;;;;;;-8.08;100.00;98441.75;5148191;27;20066;-76
2024/01/11 03:34:54;;;;;;;55.90;24.00;;;;;;;-7.92;100.00;98480.22;5135788;27;20031;-76
2024/01/11 03:37:20;;;;;;;41.83;17.38;;;;;;;-8.12;100.00;98439.94;5141084;27;20105;-75
2024/01/11 03:39:47;;;;;;;36.05;15.70;;;;;;;-8.12;100.00;98432.16;5154757;27;20087;-76
2024/01/11 03:42:15;;;;;;;39.28;15.77;;;;;;;-8.19;100.00;98438.03;5145056;27;20520;-78
2024/01/11 03:44:42;;;;;;;32.55;15.98;;;;;;;-8.06;100.00;98458.25;5128725;27;20057;-75
2024/01/11 03:47:07;;;;;;;32.72;13.90;;;;;;;-8.12;100.00;98448.56;5129752;27;20042;-75
2024/01/11 03:49:36;;;;;;;29.80;13.93;;;;;;;-8.12;100.00;98455.50;5154324;27;20541;-76
2024/01/11 03:52:01;;;;;;;28.02;12.20;;;;;;;-8.17;100.00;98449.31;5154698;27;20030;-74
2024/01/11 03:54:27;;;;;;;;;;;;;;;-8.31;100.00;98447.28;5154566;27;20038;-76
2024/01/11 03:56:55;;;;;;;30.42;12.00;;;;;;;-8.50;100.00;98426.00;5123742;27;20378;-76
2024/01/11 03:59:21;;;;;;;27.50;12.40;;;;;;;-8.44;100.00;98447.81;5132662;27;20450;-74
2024/01/11 04:01:46;;;;;;;29.05;11.35;;;;;;;-8.53;100.00;98441.50;5153985;27;20101;-75
2024/01/11 04:04:12;;;;;;;36.88;14.40;;;;;;;-8.58;100.00;98438.75;5153141;27;20027;-75
2024/01/11 04:06:38;;;;;;;32.92;12.02;;;;;;;-8.64;100.00;98436.00;5142715;27;20030;-74
2024/01/11 04:09:04;;;;;;;25.05;12.00;;;;;;;-8.57;100.00;98429.28;5123962;27;20458;-73
2024/01/11 04:11:29;;;;;;;26.65;11.93;;;;;;;-8.59;100.00;98437.03;5150733;27;20126;-74
2024/01/11 04:13:55;;;;;;;28.85;11.75;;;;;;;-8.60;100.00;98430.06;5135344;27;20050;-73
2024/01/11 04:16:25;;;;;;;34.22;13.55;;;;;;;-8.72;100.00;98414.19;5145600;27;20097;-76
2024/01/11 04:19:06;;;;;;;26.52;11.07;;;;;;;-8.75;100.00;98421.88;5151966;27;20117;-76
2024/01/11 04:21:32;;;;;;;35.42;13.25;;;;;;;-8.77;100.00;98415.78;5153895;27;20026;-75
2024/01/11 04:23:57;;;;;;;26.98;11.65;;;;;;;-8.77;100.00;98404.53;5152586;27;20023;-75
2024/01/11 04:26:23;;;;;;;25.08;12.50;;;;;;;-8.76;100.00;98407.16;5152794;27;20060;-75
2024/01/11 04:28:49;;;;;;;31.23;12.10;;;;;;;-8.77;100.00;98405.44;5152220;27;20109;-75
2024/01/11 04:31:24;;;;;;;28.13;12.80;;;;;;;-8.77;100.00;98410.63;5150911;27;20470;-76
2024/01/11 04:33:49;;;;;;;28.17;13.52;;;;;;;-8.71;100.00;98405.59;5132623;27;20030;-76
2024/01/11 04:36:18;;;;;;;35.22;17.23;;;;;;;-8.67;100.00;98414.34;5134423;27;20039;-76
2024/01/11 04:38:46;;;;;;;43.65;20.02;;;;;;;-8.83;100.00;98389.72;5154018;27;20022;-75
2024/01/11 04:41:18;;;;;;;43.25;17.80;;;;;;;-8.80;100.00;98390.66;5148288;27;20501;-78
2024/01/11 04:43:44;;;;;;;43.30;17.13;;;;;;;-8.67;100.00;98406.56;5129551;27;20826;-76
2024/01/11 04:46:23;;;;;;;31.70;15.90;;;;;;;-8.54;100.00;98414.69;5152993;27;20023;-73
2024/01/11 04:48:49;;;;;;;31.95;14.68;;;;;;;-8.50;100.00;98415.63;5134342;27;20382;-73
2024/01/11 04:51:18;;;;;;;31.73;14.07;;;;;;;-8.49;100.00;98418.25;5153467;27;20027;-74
2024/01/11 04:53:46;;;;;;;36.75;17.02;;;;;;;-8.48;100.00;98425.22;5138655;27;20319;-75
2024/01/11 04:56:14;;;;;;;41.92;18.88;;;;;;;-8.49;100.00;98413.06;5117198;27;20060;-78
2024/01/11 04:58:42;;;;;;;65.82;22.90;;;;;;;-8.39;100.00;98420.25;5104107;27;20424;-76
2024/01/11 05:01:15;;;;;;;57.58;22.63;;;;;;;-8.36;100.00;98409.97;5151344;27;20404;-74
2024/01/11 05:03:41;;;;;;;43.78;19.98;;;;;;;-8.36;100.00;98404.78;5151995;27;20026;-74
2024/01/11 05:06:06;;;;;;;57.55;22.30;;;;;;;-8.34;100.00;98403.13;5134923;27;20098;-77
2024/01/11 05:08:32;;;;;;;63.72;23.92;;;;;;;-8.31;100.00;98407.50;5115182;27;20034;-75
2024/01/11 05:11:08;;;;;;;82.15;32.20;;;;;;;-8.27;100.00;98415.34;5135059;27;20031;-73
2024/01/11 05:13:34;;;;;;;57.63;20.83;;;;;;;-8.31;100.00;98417.88;5112145;27;20041;-74
2024/01/11 05:15:59;;;;;;;64.22;21.52;;;;;;;-8.34;100.00;98416.09;5150869;27;20030;-76
2024/01/11 05:18:27;;;;;;;45.90;19.13;;;;;;;-8.32;100.00;98419.59;5139224;27;20047;-77
2024/01/11 05:20:53;;;;;;;55.47;20.77;;;;;;;-8.47;100.00;98408.81;5151686;27;20456;-74
2024/01/11 05:23:19;;;;;;;43.85;19.23;;;;;;;-8.51;100.00;98412.16;5150812;27;20030;-76
2024/01/11 05:25:49;;;;;;;44.95;17.23;;;;;;;-8.47;100.00;98406.22;5147090;27;20019;-75
2024/01/11 05:28:15;;;;;;;48.88;19.05;;;;;;;-8.54;100.00;98406.91;5151222;27;20338;-74
2024/01/11 05:30:41;;;;;;;38.20;17.60;;;;;;;-8.58;100.00;98399.03;5133769;27;20037;-77
2024/01/11 05:33:10;;;;;;;47.92;21.40;;;;;;;-8.58;100.00;98396.44;5152697;27;20026;-76
2024/01/11 05:35:39;;;;;;;36.95;17.13;;;;;;;-8.64;100.00;98397.13;5149749;27;20506;-75
2024/01/11 05:38:05;;;;;;;46.50;17.70;;;;;;;-8.64;100.00;98404.91;5121791;27;20027;-75
2024/01/11 05:40:31;;;;;;;48.47;20.15;;;;;;;-8.69;100.00;98406.50;5133652;27;20105;-74
2024/01/11 05:42:56;;;;;;;40.88;19.52;;;;;;;-8.74;100.00;98392.56;5152406;27;20550;-75
2024/01/11 05:45:22;;;;;;;44.92;17.52;;;;;;;-8.67;100.00;98391.84;5116455;27;20104;-75
2024/01/11 05:47:56;;;;;;;38.58;17.40;;;;;;;-8.76;100.00;98385.53;5151264;27;20054;-75
2024/01/11 05:50:25;;;;;;;42.53;17.88;;;;;;;-8.76;100.00;98396.78;5150889;27;20110;-76
2024/01/11 05:52:53;;;;;;;31.73;15.90;;;;;;;-8.71;100.00;98384.84;5142588;27;20550;-75
2024/01/11 05:55:19;;;;;;;43.67;17.60;;;;;;;-8.74;100.00;98371.81;5133752;27;20027;-76
2024/01/11 05:57:45;;;;;;;52.55;20.80;;;;;;;-8.79;100.00;98365.63;5116286;27;20105;-77
2024/01/11 06:00:11;;;;;;;63.15;22.23;;;;;;;-8.72;100.00;98377.03;5136972;27;20046;-75
2024/01/11 06:02:37;;;;;;;56.45;22.52;;;;;;;-8.65;100.00;98376.34;5151478;27;20027;-75
2024/01/11 06:05:03;;;;;;;30.10;13.60;;;;;;;-8.63;100.00;98375.56;5133188;27;20087;-74
2024/01/11 06:07:29;;;;;;;44.95;17.63;;;;;;;-8.62;100.00;98372.13;5150441;27;20034;-74
2024/01/11 06:09:54;;;;;;;42.30;16.77;;;;;;;-8.71;100.00;98358.06;5133492;27;20542;-76
2024/01/11 06:12:20;;;;;;;56.03;20.15;;;;;;;-8.80;100.00;98350.94;5150289;27;20043;-75
2024/01/11 06:14:46;;;;;;;44.17;17.73;;;;;;;-8.78;100.00;98356.13;5151706;27;20027;-75
2024/01/11 06:17:12;;;;;;;44.60;16.80;;;;;;;-8.82;100.00;98344.81;5152062;27;20403;-78
2024/01/11 06:19:38;;;;;;;48.38;19.40;;;;;;;-8.74;100.00;98351.09;5120121;27;20064;-75
2024/01/11 06:22:05;;;;;;;57.83;24.42;;;;;;;-8.77;100.00;98337.16;5135173;27;20059;-74
2024/01/11 06:24:31;;;;;;;74.80;32.55;;;;;;;-8.86;100.00;98337.81;5150614;27;20375;-74
2024/01/11 06:26:56;;;;;;;77.38;32.55;;;;;;;-8.89;100.00;98337.72;5150731;27;20022;-74
2024/01/11 06:29:22;;;;;;;82.10;33.17;;;;;;;-8.82;100.00;98337.03;5150604;27;20489;-75
2024/01/11 06:31:48;;;;;;;73.40;32.67;;;;;;;-8.72;100.00;98345.94;5150357;27;20053;-74
2024/01/11 06:34:13;;;;;;;85.32;36.67;;;;;;;-8.75;100.00;98333.78;5151629;27;20157;-75
2024/01/11 06:36:39;;;;;;;91.65;34.00;;;;;;;-8.65;100.00;98329.69;5150436;27;20052;-75
2024/01/11 06:39:05;;;;;;;89.65;36.63;;;;;;;-8.48;100.00;98336.16;5151562;27;20074;-75
2024/01/11 06:41:30;;;;;;;97.55;40.38;;;;;;;-8.32;100.00;98343.50;5147450;27;20513;-77
2024/01/11 06:44:02;;;;;;;104.85;40.58;;;;;;;-7.98;100.00;98334.75;5151608;27;20022;-76
2024/01/11 06:46:29;;;;;;;88.82;35.42;;;;;;;-7.80;100.00;98340.34;5151902;27;20554;-75
2024/01/11 06:48:54;;;;;;;102.53;41.78;;;;;;;-7.78;100.00;98336.94;5151336;27;20034;-76
2024/01/11 06:51:23;;;;;;;112.25;46.78;;;;;;;-7.61;100.00;98341.63;5150654;27;20026;-75
2024/01/11 06:53:51;;;;;;;108.78;41.00;;;;;;;-7.60;100.00;98336.47;5149968;27;20027;-76
2024/01/11 06:56:23;;;;;;;114.15;40.42;;;;;;;-7.45;100.00;98328.13;5137955;27;20112;-76
2024/01/11 06:58:50;;;;;;;98.07;40.65;;;;;;;-7.28;100.00;98334.53;5153736;27;20026;-76
2024/01/11 07:01:15;;;;;;;79.30;32.95;;;;;;;-7.13;100.00;98332.22;5138836;27;20043;-77
2024/01/11 07:03:49;;;;;;;58.90;25.77;;;;;;;-7.07;100.00;98315.91;5155399;27;20029;-76
2024/01/11 07:06:15;;;;;;;82.70;32.20;;;;;;;-6.99;100.00;98312.59;5146483;27;20026;-76
2024/01/11 07:08:41;;;;;;;75.88;29.85;;;;;;;-6.48;100.00;98323.03;5143933;27;20027;-76
2024/01/11 07:11:07;;;;;;;88.10;28.55;;;;;;;-6.24;100.00;98320.84;5150583;27;20031;-79
2024/01/11 07:13:33;;;;;;;85.75;28.30;;;;;;;-5.80;100.00;98310.19;5134720;27;20026;-76
2024/01/11 07:15:59;;;;;;;73.63;29.95;;;;;;;-5.37;100.00;98307.28;5141261;27;20041;-76
2024/01/11 07:18:28;;;;;;;70.25;28.85;;;;;;;-4.65;100.00;98303.75;5146518;27;20109;-77
2024/01/11 07:21:17;;;;;;;70.80;31.55;;;;;;;-4.49;100.00;98297.81;5125808;27;20083;-76
2024/01/11 07:23:42;;;;;;;80.22;31.02;;;;;;;-4.17;100.00;98298.94;5132756;27;20035;-75
2024/01/11 07:26:19;;;;;;;88.03;34.63;;;;;;;-3.58;100.00;98288.91;5154300;27;20037;-77
2024/01/11 07:28:45;;;;;;;92.38;35.88;;;;;;;-2.87;100.00;98293.53;5155116;27;20401;-77
2024/01/11 07:31:10;;;;;;;77.38;31.83;;;;;;;-2.42;100.00;98277.03;5136600;27;20023;-76
2024/01/11 07:33:36;;;;;;;103.82;40.70;;;;;;;-1.57;100.00;98269.97;5154770;27;20030;-77
2024/01/11 07:36:02;;;;;;;116.63;44.38;;;;;;;-0.82;100.00;98255.63;5139860;27;20470;-77
2024/01/11 07:38:28;;;;;;;113.45;46.65;;;;;;;-1.44;100.00;98257.66;5126612;27;20038;-77
2024/01/11 07:41:01;;;;;;;115.25;46.53;;;;;;;-1.66;100.00;98247.25;5123932;27;20087;-76
2024/01/11 07:43:28;;;;;;;115.35;45.83;;;;;;;-1.34;100.00;98254.13;5154377;27;20444;-77
2024/01/11 07:45:56;;;;;;;111.85;45.67;;;;;;;-0.43;100.00;98249.22;5154646;27;20474;-76
2024/01/11 07:48:42;;;;;;;128.10;50.42;;;;;;;-0.12;95.27;98231.44;5154617;27;20076;-78
2024/01/11 07:51:08;;;;;;;101.35;40.88;;;;;;;0.15;92.75;98236.47;5154951;27;20122;-75
2024/01/11 07:53:33;;;;;;;97.00;42.38;;;;;;;-0.01;92.19;98240.13;5153622;27;20043;-75
2024/01/11 07:55:59;;;;;;;118.88;47.92;;;;;;;0.07;88.73;98233.03;5152965;27;20512;-75
2024/01/11 07:58:24;;;;;;;94.22;38.97;;;;;;;0.97;84.89;98232.88;5143132;27;20034;-75
2024/01/11 08:00:50;;;;;;;79.78;35.65;;;;;;;1.31;77.97;98207.81;5158640;27;20053;-76
2024/01/11 08:03:16;;;;;;;102.95;41.72;;;;;;;1.53;77.38;98213.63;5151674;27;20018;-76
2024/01/11 08:05:43;;;;;;;103.07;43.63;;;;;;;2.08;72.48;98203.03;5174460;27;20018;-77
2024/01/11 08:08:08;;;;;;;110.18;48.38;;;;;;;2.64;69.75;98202.81;5156362;27;20018;-76
2024/01/11 08:10:34;;;;;;;112.43;50.30;;;;;;;2.94;66.04;98187.22;5165895;27;20087;-75
2024/01/11 08:13:00;;;;;;;112.40;52.75;;;;;;;3.27;62.66;98183.84;5144038;27;20110;-75
2024/01/11 08:15:26;;;;;;;114.22;52.53;;;;;;;2.74;62.81;98188.50;5153843;27;20516;-75
2024/01/11 08:17:51;;;;;;;119.07;53.13;;;;;;;3.14;64.24;98193.81;5135251;27;20102;-75
2024/01/11 08:20:17;;;;;;;109.80;50.83;;;;;;;3.64;62.00;98182.06;5150066;27;20079;-76
2024/01/11 08:22:48;;;;;;;99.82;44.20;;;;;;;3.09;62.40;98177.19;5173843;27;20109;-75
2024/01/11 08:25:14;;;;;;;97.77;45.80;;;;;;;3.73;60.65;98189.78;5157053;27;20018;-76
2024/01/11 08:27:40;;;;;;;95.55;44.08;;;;;;;3.55;61.63;98187.56;5154970;27;20023;-74
2024/01/11 08:30:08;;;;;;;93.28;43.90;;;;;;;3.66;61.83;98182.03;5135095;27;20106;-75
2024/01/11 08:32:38;;;;;;;89.70;40.88;;;;;;;3.67;61.77;98192.56;5135419;27;20493;-72
2024/01/11 08:35:06;;;;;;;82.55;37.30;;;;;;;3.22;63.92;98189.25;5139640;27;20018;-71
2024/01/11 08:37:32;;;;;;;83.07;36.58;;;;;;;3.29;64.42;98190.81;5130057;27;20026;-70
2024/01/11 08:39:57;;;;;;;82.53;36.45;;;;;;;3.62;64.82;98194.47;5152989;27;20040;-71
2024/01/11 08:42:23;;;;;;;78.13;35.97;;;;;;;3.90;62.94;98188.50;5142742;27;20030;-70
2024/01/11 08:44:49;;;;;;;79.68;35.45;;;;;;;3.98;63.37;98191.81;5145952;27;20396;-71
2024/01/11 08:47:14;;;;;;;86.78;43.22;;;;;;;4.41;61.89;98176.53;5152106;27;20408;-71
2024/01/11 08:49:40;;;;;;;101.78;51.20;;;;;;;5.42;58.45;98167.31;5157482;27;20397;-72
2024/01/11 08:52:06;;;;;;;74.90;36.60;;;;;;;5.17;57.29;98158.41;5143853;27;20019;-71
2024/01/11 08:54:34;;;;;;;65.68;32.15;;;;;;;5.56;56.59;98151.84;5155431;27;20038;-70
2024/01/11 08:57:01;;;;;;;73.28;36.78;;;;;;;6.01;55.62;98154.78;5144226;27;20061;-70
2024/01/11 08:59:27;;;;;;;72.72;35.95;;;;;;;5.74;54.79;98143.28;5155076;27;20050;-70
2024/01/11 09:01:52;;;;;;;69.22;33.42;;;;;;;5.74;54.60;98145.94;5137674;27;20034;-70
2024/01/11 09:04:18;;;;;;;75.47;34.90;;;;;;;6.00;55.18;98148.59;5154815;27;20876;-71
2024/01/11 09:06:44;;;;;;;148.45;79.82;;;;;;;5.84;57.13;98155.34;5121922;27;20549;-71
2024/01/11 09:09:13;;;;;;;80.85;39.75;;;;;;;5.85;57.14;98146.47;5117057;27;20065;-69
2024/01/11 09:11:41;;;;;;;89.05;42.10;;;;;;;7.00;54.80;98136.97;5134413;27;20058;-70
2024/01/11 09:14:07;;;;;;;79.90;41.13;;;;;;;7.35;52.26;98122.28;5134190;27;20473;-71
2024/01/11 09:16:33;;;;;;;89.28;43.42;;;;;;;7.15;53.49;98121.34;5151197;27;20036;-70
2024/01/11 09:19:01;;;;;;;92.00;41.80;;;;;;;7.10;53.17;98113.56;5151395;27;20406;-70
2024/01/11 09:21:27;;;;;;;75.65;39.42;;;;;;;7.70;51.25;98107.53;5141175;27;20109;-72
2024/01/11 09:23:53;;;;;;;77.75;39.50;;;;;;;7.59;50.72;98101.81;5173432;27;20056;-70
2024/01/11 09:26:18;;;;;;;80.97;39.25;;;;;;;8.11;50.02;98098.69;5154925;27;20026;-71
2024/01/11 09:28:45;;;;;;;85.63;41.53;;;;;;;8.41;48.71;98079.63;5137151;27;20113;-71
2024/01/11 09:31:11;;;;;;;87.40;41.17;;;;;;;7.78;49.81;98085.94;5141831;27;20019;-71
2024/01/11 09:33:40;;;;;;;79.88;42.50;;;;;;;8.34;48.85;98070.16;5133988;27;20519;-71
2024/01/11 09:36:10;;;;;;;79.43;39.85;;;;;;;8.53;48.88;98066.59;5133943;27;20108;-70
2024/01/11 09:38:35;;;;;;;76.07;38.90;;;;;;;8.49;48.28;98065.00;5117196;27;20450;-70
2024/01/11 09:41:10;;;;;;;68.63;35.28;;;;;;;8.83;47.75;98058.97;5133735;27;20085;-70
2024/01/11 09:43:35;;;;;;;66.30;35.35;;;;;;;8.79;47.87;98060.09;5141755;27;20029;-71
2024/01/11 09:46:05;;;;;;;68.00;36.50;;;;;;;9.53;46.74;98044.91;5170003;27;20481;-71
2024/01/11 09:48:35;;;;;;;78.97;41.92;;;;;;;9.83;46.09;98038.03;5116575;27;20030;-72
2024/01/11 09:51:07;;;;;;;121.80;53.28;;;;;;;10.42;45.09;98032.28;5124934;27;20034;-71
2024/01/11 09:53:33;;;;;;;109.00;54.25;;;;;;;10.29;44.83;98021.38;5133329;27;20031;-71
2024/01/11 09:56:00;;;;;;;96.70;50.47;;;;;;;10.49;45.04;98011.41;5135459;27;20490;-70
2024/01/11 09:58:26;;;;;;;98.03;48.65;;;;;;;10.37;45.14;98012.91;5136865;27;20537;-70
2024/01/11 10:00:59;;;;;;;122.72;59.08;;;;;;;10.66;44.77;98004.19;5136783;27;20054;-71
2024/01/11 10:03:26;;;;;;;107.55;52.78;;;;;;;10.51;44.89;97999.69;5134167;27;20043;-71
2024/01/11 10:05:56;;;;;;;98.05;52.38;;;;;;;10.93;44.45;97991.06;5133581;27;20508;-69
2024/01/11 10:08:22;;;;;;;83.53;44.70;;;;;;;10.85;45.37;97996.00;5133578;27;20034;-70
2024/01/11 10:10:48;;;;;;;78.38;45.03;;;;;;;10.75;46.00;97995.66;5133508;27;20051;-72
2024/01/11 10:13:14;;;;;;;75.20;39.42;;;;;;;10.70;45.10;97984.34;5107798;27;20410;-71
2024/01/11 10:15:40;;;;;;;75.45;39.10;;;;;;;9.34;47.53;97988.03;5133604;27;20479;-71
2024/01/11 10:18:06;;;;;;;79.38;40.92;;;;;;;8.92;49.58;97993.69;5116153;27;20035;-72
2024/01/11 10:20:32;;;;;;;67.45;37.60;;;;;;;8.75;49.88;97991.81;5133405;27;20023;-71
2024/01/11 10:22:58;;;;;;;63.83;33.28;;;;;;;7.64;51.43;97988.88;5151747;27;20433;-71
2024/01/11 10:25:23;;;;;;;65.35;34.33;;;;;;;8.55;51.63;97990.06;5116150;27;20033;-70
2024/01/11 10:27:49;;;;;;;52.97;27.20;;;;;;;8.53;52.00;97985.75;5133592;27;20030;-71
2024/01/11 10:30:16;;;;;;;54.03;26.35;;;;;;;8.17;54.22;97994.50;5115810;27;20030;-72
2024/01/11 10:32:43;;;;;;;54.97;25.65;;;;;;;7.56;54.49;98000.78;5134659;27;20026;-72
2024/01/11 10:35:09;;;;;;;46.83;25.83;;;;;;;7.58;55.69;97988.25;5137070;27;20027;-71
2024/01/11 10:37:36;;;;;;;45.00;24.98;;;;;;;8.76;53.25;97982.88;5137399;27;20046;-71
2024/01/11 10:40:12;;;;;;;42.92;23.33;;;;;;;9.11;50.93;97968.69;5136905;27;20500;-72
2024/01/11 10:42:46;;;;;;;45.13;24.02;;;;;;;8.09;53.56;97974.47;5137326;27;20023;-71
2024/01/11 10:45:16;;;;;;;44.92;23.55;;;;;;;8.07;53.50;97971.84;5120206;27;20026;-71
2024/01/11 10:47:58;;;;;;;52.30;26.60;;;;;;;8.56;53.49;97958.94;5119993;27;20080;-71
2024/01/11 10:50:25;;;;;;;53.95;28.38;;;;;;;9.37;51.90;97945.16;5120300;27;20059;-71
2024/01/11 10:53:03;;;;;;;52.90;27.20;;;;;;;9.62;50.34;97934.97;5136968;27;20031;-71
2024/01/11 10:55:34;;;;;;;58.70;29.20;;;;;;;9.82;49.92;97934.78;5136935;27;20049;-71
2024/01/11 10:58:01;;;;;;;64.47;31.40;;;;;;;10.70;48.78;97924.63;5136880;27;20030;-71
2024/01/11 11:00:28;;;;;;;66.03;33.33;;;;;;;11.22;47.89;97915.31;5115885;27;20192;-72
2024/01/11 11:02:55;;;;;;;47.80;25.92;;;;;;;11.93;46.09;97896.75;5119508;27;20030;-72
2024/01/11 11:05:22;;;;;;;58.85;31.13;;;;;;;12.40;45.14;97888.41;5125013;27;20508;-69
2024/01/11 11:07:49;;;;;;;52.10;28.63;;;;;;;11.42;46.50;97890.88;5136900;27;20404;-71
2024/01/11 11:10:17;;;;;;;55.20;32.13;;;;;;;11.68;46.54;97883.09;5102227;27;20045;-71
2024/01/11 11:12:45;;;;;;;43.90;24.05;;;;;;;10.61;46.87;97882.34;5119374;27;20022;-71
2024/01/11 11:15:11;;;;;;;38.72;20.80;;;;;;;10.06;49.04;97892.53;5119352;27;20026;-72
2024/01/11 11:17:37;;;;;;;54.63;29.30;;;;;;;10.96;47.37;97877.63;5129042;27;20075;-71